Time;durP1;ratioP1;P1;durP2;ratioP2;P2;SDS_P1;SDS_P2;PMS_P1;PMS_P2;Temp;Humidity;BMP_temperature;BMP_pressure;BME280_temperature;BME280_humidity;BME280_pressure;Samples;Min_cycle;Max_cycle;Signal;HPM_P1;HPM_P2
2023/12/13 00:01:23;;;;;;;;;0.00;0.00;;;;;15.09;100.00;99686.16;5038550;28;45836;-80
2023/12/13 00:03:50;;;;;;;;;0.00;0.00;;;;;15.06;100.00;99683.72;5037976;28;45564;-79
2023/12/13 00:06:15;;;;;;;;;0.00;0.00;;;;;15.12;100.00;99670.25;5037015;28;45632;-80
2023/12/13 00:08:40;;;;;;;;;0.00;0.00;;;;;15.01;100.00;99678.78;5037684;28;51126;-80
2023/12/13 00:11:05;;;;;;;;;0.00;0.00;;;;;15.03;100.00;99669.06;5036968;28;60706;-81
2023/12/13 00:13:31;;;;;;;;;0.00;0.00;;;;;15.02;100.00;99671.75;5037799;28;47264;-81
2023/12/13 00:15:56;;;;;;;;;0.00;0.00;;;;;14.99;100.00;99664.94;5036337;28;73091;-78
2023/12/13 00:18:22;;;;;;;;;0.00;0.00;;;;;14.92;100.00;99652.34;5037203;28;45448;-79
2023/12/13 00:20:47;;;;;;;;;0.00;0.00;;;;;14.86;100.00;99664.06;5036973;28;45557;-81
2023/12/13 00:23:12;;;;;;;;;0.00;0.00;;;;;14.91;100.00;99661.97;5037817;28;45487;-81
2023/12/13 00:25:38;;;;;;;;;0.00;0.00;;;;;14.86;100.00;99656.19;5036407;28;75626;-80
2023/12/13 00:28:04;;;;;;;;;0.00;0.00;;;;;14.76;100.00;99658.53;5037538;28;45390;-80
2023/12/13 00:30:29;;;;;;;;;0.00;0.00;;;;;14.78;100.00;99656.66;5038038;28;45465;-80
2023/12/13 00:32:54;;;;;;;;;0.00;0.00;;;;;14.84;100.00;99663.28;5036744;28;70295;-80
2023/12/13 00:35:19;;;;;;;;;0.00;0.00;;;;;14.79;100.00;99655.75;5017712;28;75239;-79
2023/12/13 00:37:45;;;;;;;;;0.00;0.00;;;;;14.83;100.00;99656.38;5036825;28;67121;-80
2023/12/13 00:40:11;;;;;;;;;0.00;0.00;;;;;14.94;100.00;99653.09;5035747;28;45389;-80
2023/12/13 00:42:37;;;;;;;;;0.00;0.00;;;;;14.90;100.00;99653.28;5037174;28;45358;-80
2023/12/13 00:45:04;;;;;;;;;0.00;0.00;;;;;14.89;100.00;99649.00;5037555;28;47257;-80
2023/12/13 00:47:30;;;;;;;;;0.00;0.00;;;;;14.88;100.00;99651.69;5037095;28;45302;-80
2023/12/13 00:49:55;;;;;;;;;0.00;0.00;;;;;14.78;100.00;99640.94;5037459;28;45578;-79
2023/12/13 00:52:21;;;;;;;;;0.00;0.00;;;;;14.70;100.00;99640.59;5037619;28;45422;-80
2023/12/13 00:54:46;;;;;;;;;0.00;0.00;;;;;14.64;100.00;99643.63;5037381;28;46348;-79
2023/12/13 00:57:12;;;;;;;;;0.00;0.00;;;;;14.68;100.00;99645.09;5037049;28;45479;-79
2023/12/13 00:59:37;;;;;;;;;0.00;0.00;;;;;14.70;100.00;99633.59;5036954;28;45439;-79
2023/12/13 01:02:04;;;;;;;;;0.00;0.00;;;;;14.76;100.00;99634.97;5036796;28;45444;-79
2023/12/13 01:04:30;;;;;;;;;0.00;0.00;;;;;14.80;100.00;99636.47;5037319;28;46460;-80
2023/12/13 01:06:55;;;;;;;;;0.00;0.00;;;;;14.80;100.00;99633.00;5037343;28;45403;-80
2023/12/13 01:09:20;;;;;;;;;0.00;0.00;;;;;14.84;100.00;99631.84;5036540;28;45431;-79
2023/12/13 01:11:46;;;;;;;;;0.00;0.00;;;;;14.69;100.00;99629.28;5035745;28;69251;-80
2023/12/13 01:14:11;;;;;;;;;0.00;0.00;;;;;14.82;100.00;99631.97;5018910;28;46230;-79
2023/12/13 01:16:36;;;;;;;;;0.00;0.00;;;;;14.67;100.00;99631.19;5034861;28;66409;-80
2023/12/13 01:19:02;;;;;;;;;0.00;0.00;;;;;14.73;100.00;99623.84;5035644;28;70229;-79
2023/12/13 01:21:28;;;;;;;;;0.00;0.00;;;;;14.80;100.00;99620.75;5036399;28;45399;-80
2023/12/13 01:23:54;;;;;;;;;0.00;0.00;;;;;14.55;100.00;99626.66;5036218;28;46304;-80
2023/12/13 01:26:19;;;;;;;;;0.00;0.00;;;;;14.51;100.00;99622.56;5036874;28;45361;-80
2023/12/13 01:28:45;;;;;;;;;0.00;0.00;;;;;14.48;100.00;99615.72;5018152;28;69573;-80
2023/12/13 01:31:10;;;;;;;;;0.00;0.00;;;;;14.56;100.00;99622.28;5036046;28;49814;-80
2023/12/13 01:33:35;;;;;;;;;0.00;0.00;;;;;14.48;100.00;99628.81;5035584;28;74283;-79
2023/12/13 01:36:04;;;;;;;;;0.00;0.00;;;;;14.60;100.00;99626.41;5035047;28;69268;-81
2023/12/13 01:38:29;;;;;;;;;0.00;0.00;;;;;14.48;100.00;99634.06;5036559;28;45370;-80
2023/12/13 01:40:55;;;;;;;;;0.00;0.00;;;;;14.51;100.00;99628.66;5035962;28;68484;-80
2023/12/13 01:43:22;;;;;;;;;1.00;1.00;;;;;14.60;100.00;99631.63;5035171;28;75363;-79
2023/12/13 01:45:48;;;;;;;;;0.00;0.00;;;;;14.46;100.00;99640.34;5035440;28;45439;-80
2023/12/13 01:48:14;;;;;;;;;0.00;0.00;;;;;14.53;100.00;99637.25;5036805;28;45234;-81
2023/12/13 01:50:39;;;;;;;;;0.00;0.00;;;;;14.48;100.00;99638.47;5034867;28;69239;-78
2023/12/13 01:53:05;;;;;;;;;0.00;0.00;;;;;14.49;100.00;99635.75;5035296;28;75396;-80
2023/12/13 01:55:31;;;;;;;;;0.00;0.00;;;;;14.38;100.00;99648.69;5036305;28;45422;-80
2023/12/13 01:57:57;;;;;;;;;0.00;0.00;;;;;14.35;100.00;99648.84;5036378;28;45409;-80
2023/12/13 02:00:22;;;;;;;;;0.00;0.00;;;;;14.32;100.00;99643.84;5035185;28;68279;-80
2023/12/13 02:02:48;;;;;;;;;0.00;0.00;;;;;14.38;100.00;99645.22;5035955;28;51058;-80
2023/12/13 02:05:13;;;;;;;;;0.00;0.00;;;;;14.39;100.00;99644.28;5035299;28;65778;-80
2023/12/13 02:07:39;;;;;;;;;0.00;0.00;;;;;14.30;100.00;99648.28;5034043;28;68290;-79
2023/12/13 02:10:06;;;;;;;;;0.00;0.00;;;;;14.31;100.00;99650.81;5017081;28;66279;-80
2023/12/13 02:12:31;;;;;;;;;0.00;0.00;;;;;14.36;100.00;99650.56;5035349;28;45761;-79
2023/12/13 02:14:57;;;;;;;;;0.00;0.00;;;;;14.32;100.00;99647.28;5033660;28;72544;-80
2023/12/13 02:17:23;;;;;;;;;0.00;0.00;;;;;14.34;100.00;99647.19;5036244;28;45879;-79
2023/12/13 02:19:48;;;;;;;;;0.00;0.00;;;;;14.35;100.00;99638.38;5035694;28;45447;-80
2023/12/13 02:22:13;;;;;;;;;0.00;0.00;;;;;14.30;100.00;99635.22;5035447;28;63994;-79
2023/12/13 02:24:40;;;;;;;;;0.00;0.00;;;;;14.18;100.00;99651.69;5016778;28;61500;-79
2023/12/13 02:27:06;;;;;;;;;0.00;0.00;;;;;14.24;100.00;99646.06;5009627;28;45282;-80
2023/12/13 02:29:32;;;;;;;;;0.00;0.00;;;;;14.19;100.00;99648.97;5018005;28;45576;-79
2023/12/13 02:31:57;;;;;;;;;0.00;0.00;;;;;14.21;100.00;99641.88;5016946;28;74448;-79
2023/12/13 02:34:23;;;;;;;;;0.00;0.00;;;;;14.16;100.00;99635.25;5034171;28;72404;-79
2023/12/13 02:36:48;;;;;;;;;0.00;0.00;;;;;14.23;100.00;99633.94;5035289;28;45263;-79
2023/12/13 02:39:13;;;;;;;;;0.00;0.00;;;;;14.15;100.00;99637.00;5034954;28;64329;-79
2023/12/13 02:41:39;;;;;;;;;0.00;0.00;;;;;14.08;100.00;99633.94;5035454;28;45561;-79
2023/12/13 02:44:05;;;;;;;;;0.00;0.00;;;;;14.13;100.00;99625.78;5016161;28;73506;-79
2023/12/13 02:46:30;;;;;;;;;0.00;0.00;;;;;14.13;100.00;99618.78;5035466;28;45362;-79
2023/12/13 02:48:57;;;;;;;;;0.00;0.00;;;;;14.10;100.00;99616.34;5034953;28;70029;-79
2023/12/13 02:51:23;;;;;;;;;0.00;0.00;;;;;14.05;100.00;99617.56;5017493;28;46586;-79
2023/12/13 02:53:48;;;;;;;;;0.00;0.00;;;;;14.06;100.00;99617.47;5035144;28;45267;-79
2023/12/13 02:56:14;;;;;;;;;0.00;0.00;;;;;13.98;100.00;99609.25;5035090;28;54332;-79
2023/12/13 02:58:40;;;;;;;;;0.00;0.00;;;;;14.02;100.00;99609.91;5035151;28;45354;-79
2023/12/13 03:01:06;;;;;;;;;0.00;0.00;;;;;13.96;100.00;99610.28;5034109;28;74611;-80
2023/12/13 03:03:31;;;;;;;;;0.00;0.00;;;;;13.96;100.00;99605.06;5036344;28;45796;-79
2023/12/13 03:05:56;;;;;;;;;0.00;0.00;;;;;13.83;100.00;99603.16;5039148;28;45417;-80
2023/12/13 03:08:22;;;;;;;;;0.00;0.00;;;;;13.81;100.00;99604.22;5038739;28;45468;-80
2023/12/13 03:10:47;;;;;;;;;0.00;0.00;;;;;13.87;100.00;99602.06;5037406;28;73736;-80
2023/12/13 03:13:12;;;;;;;;;0.00;0.00;;;;;13.82;100.00;99598.88;5038751;28;45358;-79
2023/12/13 03:15:38;;;;;;;;;0.00;0.00;;;;;13.73;100.00;99589.81;5039197;28;45322;-79
2023/12/13 03:18:03;;;;;;;;;0.00;0.00;;;;;13.81;100.00;99594.56;5037999;28;54141;-80
2023/12/13 03:20:30;;;;;;;;;0.00;0.00;;;;;13.79;100.00;99590.38;5037523;28;68125;-79
2023/12/13 03:22:56;;;;;;;;;0.00;0.00;;;;;13.70;100.00;99581.31;5038544;28;45410;-80
2023/12/13 03:25:21;;;;;;;;;0.00;0.00;;;;;13.72;100.00;99588.16;5037677;28;45469;-79
2023/12/13 03:27:46;;;;;;;;;0.00;0.00;;;;;13.73;100.00;99586.38;5037442;28;70433;-80
2023/12/13 03:30:12;;;;;;;;;0.00;0.00;;;;;13.79;100.00;99595.63;5037457;28;73846;-80
2023/12/13 03:32:39;;;;;;;;;0.00;0.00;;;;;13.74;100.00;99590.66;5037318;28;45440;-79
2023/12/13 03:35:06;;;;;;;;;1.00;1.00;;;;;13.78;100.00;99584.31;5049969;28;45398;-79
2023/12/13 03:37:33;;;;;;;;;0.00;0.00;;;;;13.70;100.00;99578.69;5021909;28;45412;-79
2023/12/13 03:39:58;;;;;;;;;0.00;0.00;;;;;13.72;100.00;99579.44;5038220;28;45362;-79
2023/12/13 03:42:24;;;;;;;;;0.00;0.00;;;;;13.68;100.00;99570.94;5037901;28;45522;-78
2023/12/13 03:44:49;;;;;;;;;0.00;0.00;;;;;13.72;100.00;99577.69;5037631;28;57848;-80
2023/12/13 03:47:14;;;;;;;;;0.00;0.00;;;;;13.64;100.00;99574.69;5036105;28;61861;-79
2023/12/13 03:49:40;;;;;;;;;0.00;0.00;;;;;13.71;100.00;99583.00;5038426;28;46349;-79
2023/12/13 03:52:05;;;;;;;;;0.00;0.00;;;;;13.79;100.00;99582.53;5037377;28;72831;-79
2023/12/13 03:54:30;;;;;;;;;0.00;0.00;;;;;13.78;100.00;99575.63;5037445;28;45358;-80
2023/12/13 03:56:56;;;;;;;;;1.00;0.00;;;;;13.79;100.00;99572.06;5037267;28;65244;-79
2023/12/13 03:59:21;;;;;;;;;0.00;0.00;;;;;13.87;100.00;99568.06;5036938;28;74227;-78
2023/12/13 04:01:46;;;;;;;;;0.00;0.00;;;;;13.81;100.00;99576.28;5036607;28;73020;-79
2023/12/13 04:04:12;;;;;;;;;0.00;0.00;;;;;13.80;100.00;99571.13;5037153;28;68731;-79
2023/12/13 04:06:37;;;;;;;;;0.00;0.00;;;;;13.38;100.00;99567.56;5038345;28;45478;-80
2023/12/13 04:09:03;;;;;;;;;0.00;0.00;;;;;13.25;100.00;99563.00;5036975;28;74733;-79
2023/12/13 04:11:28;;;;;;;;;0.00;0.00;;;;;13.15;100.00;99573.16;5037067;28;61953;-80
2023/12/13 04:13:53;;;;;;;;;0.00;0.00;;;;;13.20;100.00;99570.28;5037580;28;45401;-79
2023/12/13 04:16:19;;;;;;;;;0.00;0.00;;;;;13.25;100.00;99567.41;5037082;28;45506;-79
2023/12/13 04:18:44;;;;;;;;;0.00;0.00;;;;;13.23;100.00;99566.66;5036863;28;75679;-79
2023/12/13 04:21:10;;;;;;;;;0.00;0.00;;;;;13.25;100.00;99577.84;5036163;28;73073;-79
2023/12/13 04:23:36;;;;;;;;;0.00;0.00;;;;;13.29;100.00;99579.34;5037803;28;45491;-79
2023/12/13 04:26:01;;;;;;;;;0.00;0.00;;;;;13.31;100.00;99575.75;5037184;28;45469;-79
2023/12/13 04:28:26;;;;;;;;;0.00;0.00;;;;;13.38;100.00;99572.78;5037926;28;46272;-79
2023/12/13 04:30:52;;;;;;;;;0.00;0.00;;;;;13.47;100.00;99574.84;5036900;28;73054;-79
2023/12/13 04:33:18;;;;;;;;;0.00;0.00;;;;;13.44;100.00;99572.41;5036608;28;68651;-79
2023/12/13 04:35:44;;;;;;;;;0.00;0.00;;;;;13.47;100.00;99569.63;5037515;28;45996;-79
2023/12/13 04:38:09;;;;;;;;;0.00;0.00;;;;;13.44;100.00;99560.19;5037780;28;47237;-79
2023/12/13 04:40:34;;;;;;;;;0.00;0.00;;;;;13.36;100.00;99559.81;5036089;28;73991;-79
2023/12/13 04:43:00;;;;;;;;;0.00;0.00;;;;;13.31;100.00;99554.84;5037543;28;45412;-79
2023/12/13 04:45:25;;;;;;;;;0.00;0.00;;;;;13.36;100.00;99562.41;5037368;28;45381;-79
2023/12/13 04:47:51;;;;;;;;;0.00;0.00;;;;;13.30;100.00;99553.16;5036308;28;64628;-79
2023/12/13 04:50:16;;;;;;;;;0.00;0.00;;;;;13.27;100.00;99558.53;5036514;28;74196;-79
2023/12/13 04:52:41;;;;;;;;;0.00;0.00;;;;;13.23;100.00;99556.22;5037266;28;51113;-80
2023/12/13 04:55:07;;;;;;;;;1.00;1.00;;;;;13.25;100.00;99556.97;5019169;28;45496;-79
2023/12/13 04:57:32;;;;;;;;;0.00;0.00;;;;;13.21;100.00;99558.91;5037426;28;45804;-79
2023/12/13 04:59:58;;;;;;;;;0.00;0.00;;;;;13.26;100.00;99558.63;5036624;28;70416;-79
2023/12/13 05:02:23;;;;;;;;;0.00;0.00;;;;;13.12;100.00;99565.50;5036685;28;66559;-79
2023/12/13 05:04:48;;;;;;;;;0.00;0.00;;;;;13.12;100.00;99557.66;5036201;28;69317;-80
2023/12/13 05:07:14;;;;;;;;;0.00;0.00;;;;;13.11;100.00;99561.22;5036717;28;48870;-79
2023/12/13 05:09:39;;;;;;;;;0.00;0.00;;;;;13.08;100.00;99560.56;5035746;28;67379;-79
2023/12/13 05:12:05;;;;;;;;;0.00;0.00;;;;;13.04;100.00;99559.03;5037184;28;45322;-79
2023/12/13 05:14:30;;;;;;;;;0.00;0.00;;;;;13.03;100.00;99555.59;5037200;28;45460;-78
2023/12/13 05:16:55;;;;;;;;;0.00;0.00;;;;;13.15;100.00;99552.25;5036115;28;74388;-79
2023/12/13 05:19:21;;;;;;;;;0.00;0.00;;;;;12.84;100.00;99550.59;5035950;28;67381;-79
2023/12/13 05:21:46;;;;;;;;;0.00;0.00;;;;;13.22;100.00;99552.72;5036347;28;45395;-79
2023/12/13 05:24:11;;;;;;;;;0.00;0.00;;;;;12.97;100.00;99551.56;5035662;28;69479;-79
2023/12/13 05:26:37;;;;;;;;;0.00;0.00;;;;;12.77;100.00;99537.03;5035604;28;48722;-79
2023/12/13 05:29:02;;;;;;;;;0.00;0.00;;;;;12.95;100.00;99534.31;5037138;28;45273;-79
2023/12/13 05:31:28;;;;;;;;;0.00;0.00;;;;;13.06;100.00;99525.84;5037071;28;45278;-79
2023/12/13 05:33:53;;;;;;;;;0.00;0.00;;;;;13.01;100.00;99527.88;5038144;28;45469;-79
2023/12/13 05:36:19;;;;;;;;;0.00;0.00;;;;;12.97;100.00;99532.44;5050456;28;45532;-79
2023/12/13 05:38:45;;;;;;;;;0.00;0.00;;;;;12.93;100.00;99537.00;5036298;28;45353;-79
2023/12/13 05:41:10;;;;;;;;;0.00;0.00;;;;;12.98;100.00;99524.53;5037009;28;45389;-80
2023/12/13 05:43:35;;;;;;;;;0.00;0.00;;;;;12.93;100.00;99525.72;5035943;28;60438;-79
2023/12/13 05:46:02;;;;;;;;;0.00;0.00;;;;;12.86;100.00;99537.44;5034034;28;74531;-79
2023/12/13 05:48:27;;;;;;;;;0.00;0.00;;;;;12.90;100.00;99534.56;5036155;28;45394;-79
2023/12/13 05:50:52;;;;;;;;;0.00;0.00;;;;;12.88;100.00;99528.59;5035083;28;66794;-80
2023/12/13 05:53:18;;;;;;;;;0.00;0.00;;;;;12.92;100.00;99532.69;5036560;28;66812;-79
2023/12/13 05:55:43;;;;;;;;;0.00;0.00;;;;;12.95;100.00;99536.91;5056632;28;45944;-79
2023/12/13 05:58:09;;;;;;;;;0.00;0.00;;;;;12.93;100.00;99533.56;5037100;28;72023;-79
2023/12/13 06:00:35;;;;;;;;;0.00;0.00;;;;;12.93;100.00;99523.94;5035579;28;45534;-79
2023/12/13 06:03:00;;;;;;;;;0.00;0.00;;;;;12.93;100.00;99523.09;5036639;28;45668;-79
2023/12/13 06:05:26;;;;;;;;;0.00;0.00;;;;;12.84;100.00;99524.47;5035437;28;74333;-79
2023/12/13 06:07:51;;;;;;;;;0.00;0.00;;;;;12.84;100.00;99527.09;5034679;28;64689;-79
2023/12/13 06:10:17;;;;;;;;;0.00;0.00;;;;;12.90;100.00;99528.50;5035271;28;62635;-79
2023/12/13 06:12:42;;;;;;;;;0.00;0.00;;;;;12.87;100.00;99531.28;5036548;28;45624;-79
2023/12/13 06:15:08;;;;;;;;;0.00;0.00;;;;;12.75;100.00;99533.66;5035982;28;45363;-79
2023/12/13 06:17:33;;;;;;;;;0.00;0.00;;;;;12.75;100.00;99532.84;5035970;28;45358;-78
2023/12/13 06:20:00;;;;;;;;;0.00;0.00;;;;;12.68;100.00;99536.72;5035232;28;62179;-80
2023/12/13 06:22:26;;;;;;;;;0.00;0.00;;;;;12.60;100.00;99529.31;5035570;28;45500;-78
2023/12/13 06:24:51;;;;;;;;;0.00;0.00;;;;;12.60;100.00;99529.31;5036227;28;45704;-79
2023/12/13 06:27:16;;;;;;;;;0.00;0.00;;;;;12.53;100.00;99533.19;5036036;28;45353;-79
2023/12/13 06:29:42;;;;;;;;;0.00;0.00;;;;;12.54;100.00;99534.91;5034453;28;69200;-78
2023/12/13 06:32:07;;;;;;;;;0.00;0.00;;;;;12.51;100.00;99535.06;5035297;28;69228;-79
2023/12/13 06:34:32;;;;;;;;;0.00;0.00;;;;;12.54;100.00;99535.72;5035089;28;70984;-79
2023/12/13 06:36:57;;;;;;;;;0.00;0.00;;;;;12.25;100.00;99533.91;5034244;28;63631;-79
2023/12/13 06:39:23;;;;;;;;;0.00;0.00;;;;;12.43;100.00;99534.66;5035080;28;45332;-79
2023/12/13 06:41:48;;;;;;;;;0.00;0.00;;;;;12.40;100.00;99526.03;5034886;28;67249;-79
2023/12/13 06:44:13;;;;;;;;;7.00;7.00;;;;;12.46;100.00;99535.34;5043363;28;46237;-79
2023/12/13 06:46:39;;;;;;;;;0.00;0.00;;;;;12.52;100.00;99540.19;5027783;28;73257;-79
2023/12/13 06:49:04;;;;;;;;;0.00;0.00;;;;;12.53;100.00;99543.66;5035131;28;69051;-79
2023/12/13 06:51:29;;;;;;;;;0.00;0.00;;;;;12.36;100.00;99540.19;5034596;28;57209;-79
2023/12/13 06:53:55;;;;;;;;;0.00;0.00;;;;;12.37;100.00;99538.44;5034705;28;71322;-78
2023/12/13 06:56:20;;;;;;;;;0.00;0.00;;;;;12.40;100.00;99543.47;5034791;28;73543;-78
2023/12/13 06:58:46;;;;;;;;;0.00;0.00;;;;;12.45;100.00;99548.47;5034685;28;69280;-79
2023/12/13 07:01:11;;;;;;;;;0.00;0.00;;;;;12.52;100.00;99541.97;5033746;28;45250;-78
2023/12/13 07:03:36;;;;;;;;;0.00;0.00;;;;;12.58;100.00;99549.44;5031898;28;46568;-79
2023/12/13 07:06:03;;;;;;;;;0.00;0.00;;;;;12.62;100.00;99547.50;5028758;28;73066;-79
2023/12/13 07:08:28;;;;;;;;;0.00;0.00;;;;;12.52;100.00;99553.25;5035322;28;45331;-79
2023/12/13 07:10:53;;;;;;;;;0.00;0.00;;;;;12.63;100.00;99551.78;5030110;28;70480;-81
2023/12/13 07:13:19;;;;;;;;;0.00;0.00;;;;;12.70;100.00;99548.78;5013647;28;75339;-81
2023/12/13 07:15:44;;;;;;;;;0.00;0.00;;;;;12.76;100.00;99552.81;5034045;28;64786;-80
2023/12/13 07:18:09;;;;;;;;;0.00;0.00;;;;;12.83;100.00;99555.88;5034834;28;45298;-80
2023/12/13 07:20:35;;;;;;;;;0.00;0.00;;;;;12.79;100.00;99553.44;5034471;28;49068;-80
2023/12/13 07:23:00;;;;;;;;;0.00;0.00;;;;;12.89;100.00;99558.13;5030885;28;46364;-79
2023/12/13 07:25:26;;;;;;;;;0.00;0.00;;;;;12.83;100.00;99561.94;5034511;28;45403;-80
2023/12/13 07:27:51;;;;;;;;;0.00;0.00;;;;;12.74;100.00;99563.31;5034000;28;45604;-80
2023/12/13 07:30:17;;;;;;;;;0.00;0.00;;;;;12.77;100.00;99559.69;5033196;28;55916;-79
2023/12/13 07:32:44;;;;;;;;;0.00;0.00;;;;;12.81;100.00;99565.59;5033223;28;69390;-80
2023/12/13 07:35:09;;;;;;;;;0.00;0.00;;;;;12.76;100.00;99560.63;5032089;28;45453;-83
2023/12/13 07:37:35;;;;;;;;;0.00;0.00;;;;;12.84;100.00;99554.97;5033255;28;45440;-81
2023/12/13 07:40:03;;;;;;;;;0.00;0.00;;;;;13.01;100.00;99564.44;5016626;28;45549;-80
2023/12/13 07:42:28;;;;;;;;;0.00;0.00;;;;;13.13;100.00;99571.56;5034223;28;45380;-81
2023/12/13 07:44:53;;;;;;;;;0.00;0.00;;;;;13.10;100.00;99574.38;5027790;28;57351;-84
2023/12/13 07:47:19;;;;;;;;;0.00;0.00;;;;;13.03;100.00;99576.47;5034266;28;45428;-82
2023/12/13 07:49:44;;;;;;;;;0.00;0.00;;;;;13.06;100.00;99575.47;5035269;28;61624;-79
2023/12/13 07:52:09;;;;;;;;;0.00;0.00;;;;;13.01;100.00;99580.13;5036830;28;75436;-80
2023/12/13 07:54:35;;;;;;;;;0.00;0.00;;;;;13.01;100.00;99583.56;5036618;28;45788;-81
2023/12/13 07:57:00;;;;;;;;;0.00;0.00;;;;;13.03;100.00;99583.50;5038570;28;46339;-81
2023/12/13 07:59:25;;;;;;;;;0.00;0.00;;;;;13.05;100.00;99590.28;5037257;28;60521;-81
2023/12/13 08:01:51;;;;;;;;;0.00;0.00;;;;;12.96;100.00;99593.44;5035924;28;46015;-81
2023/12/13 08:04:16;;;;;;;;;0.00;0.00;;;;;13.06;100.00;99591.16;5029977;28;73093;-81
2023/12/13 08:06:41;;;;;;;;;0.00;0.00;;;;;13.06;100.00;99591.16;5036850;28;64369;-80
2023/12/13 08:09:09;;;;;;;;;0.00;0.00;;;;;13.02;100.00;99600.06;5037538;28;54063;-79
2023/12/13 08:11:35;;;;;;;;;0.00;0.00;;;;;13.04;100.00;99606.91;5036344;28;46963;-80
2023/12/13 08:14:00;;;;;;;;;0.00;0.00;;;;;13.04;100.00;99603.44;5037941;28;45900;-81
2023/12/13 08:16:26;;;;;;;;;0.00;0.00;;;;;13.05;100.00;99602.53;5020450;28;45410;-79
2023/12/13 08:18:53;;;;;;;;;0.00;0.00;;;;;13.10;100.00;99610.94;5037927;28;45345;-80
2023/12/13 08:21:19;;;;;;;;;0.00;0.00;;;;;13.03;100.00;99615.66;5032928;28;47190;-81
2023/12/13 08:23:44;;;;;;;;;0.00;0.00;;;;;13.06;100.00;99617.28;5009342;28;46828;-81
2023/12/13 08:26:12;;;;;;;;;0.00;0.00;;;;;13.06;100.00;99612.88;5035052;28;56090;-82
2023/12/13 08:28:37;;;;;;;;;0.00;0.00;;;;;13.04;100.00;99616.50;5032660;28;45292;-82
2023/12/13 08:31:03;;;;;;;;;0.00;0.00;;;;;13.05;100.00;99621.63;5035731;28;66121;-79
2023/12/13 08:33:29;;;;;;;;;0.00;0.00;;;;;13.04;100.00;99624.34;5017332;28;65030;-78
2023/12/13 08:35:54;;;;;;;;;0.00;0.00;;;;;12.98;100.00;99626.38;5037002;28;64738;-81
2023/12/13 08:38:19;;;;;;;;;0.00;0.00;;;;;13.14;100.00;99633.34;5034895;28;45701;-81
2023/12/13 08:40:45;;;;;;;;;0.00;0.00;;;;;13.07;100.00;99632.84;5017088;28;73973;-83
2023/12/13 08:43:10;;;;;;;;;0.00;0.00;;;;;13.14;100.00;99628.94;5014322;28;45443;-83
2023/12/13 08:45:35;;;;;;;;;0.00;0.00;;;;;13.18;100.00;99624.41;5039545;28;45507;-81
2023/12/13 08:48:01;;;;;;;;;0.00;0.00;;;;;13.15;100.00;99627.22;5017721;28;63531;-81
2023/12/13 08:50:26;;;;;;;;;0.00;0.00;;;;;13.15;100.00;99630.66;5015254;28;46387;-81
2023/12/13 08:52:52;;;;;;;;;0.00;0.00;;;;;13.20;100.00;99633.00;5034592;28;45302;-81
2023/12/13 08:55:18;;;;;;;;;0.00;0.00;;;;;13.26;100.00;99637.03;4996956;28;63796;-81
2023/12/13 08:57:43;;;;;;;;;0.00;0.00;;;;;13.28;100.00;99632.53;5036386;28;45491;-80
2023/12/13 09:00:09;;;;;;;;;0.00;0.00;;;;;13.38;100.00;99627.69;5035090;28;60920;-82
2023/12/13 09:02:34;;;;;;;;;0.00;0.00;;;;;13.50;100.00;99634.78;5027352;28;45629;-81
2023/12/13 09:05:00;;;;;;;;;0.00;0.00;;;;;13.48;100.00;99631.41;5017598;28;66249;-81
2023/12/13 09:07:25;;;;;;;;;0.00;0.00;;;;;13.49;100.00;99633.13;5024338;28;45503;-80
2023/12/13 09:09:51;;;;;;;;;0.00;0.00;;;;;13.60;100.00;99638.56;5029614;28;47605;-81
2023/12/13 09:12:16;;;;;;;;;0.00;0.00;;;;;13.60;100.00;99654.25;5032503;28;73126;-80
2023/12/13 09:14:42;;;;;;;;;0.00;0.00;;;;;13.68;100.00;99638.09;5026736;28;54924;-81
2023/12/13 09:17:07;;;;;;;;;0.00;0.00;;;;;13.74;100.00;99642.94;5033475;28;45615;-80
2023/12/13 09:19:32;;;;;;;;;0.00;0.00;;;;;13.66;100.00;99648.63;5051395;28;72426;-81
2023/12/13 09:21:58;;;;;;;;;0.00;0.00;;;;;13.68;100.00;99653.78;5022402;28;63172;-81
2023/12/13 09:24:23;;;;;;;;;0.00;0.00;;;;;13.64;100.00;99653.13;5023370;28;66862;-81
2023/12/13 09:26:49;;;;;;;;;0.00;0.00;;;;;13.77;100.00;99648.00;5034530;28;45808;-81
2023/12/13 09:29:14;;;;;;;;;0.00;0.00;;;;;13.78;100.00;99647.09;5036041;28;46105;-80
2023/12/13 09:31:40;;;;;;;;;0.00;0.00;;;;;13.90;100.00;99650.75;5016127;28;45484;-80
2023/12/13 09:34:05;;;;;;;;;0.00;0.00;;;;;13.87;100.00;99645.69;5021897;28;51425;-81
2023/12/13 09:36:30;;;;;;;;;0.00;0.00;;;;;13.77;100.00;99640.16;5039265;28;65559;-81
2023/12/13 09:38:56;;;;;;;;;0.00;0.00;;;;;13.90;100.00;99651.56;5018045;28;54716;-81
2023/12/13 09:41:25;;;;;;;;;0.00;0.00;;;;;14.01;100.00;99656.16;5042339;28;65343;-80
2023/12/13 09:43:53;;;;;;;;;0.00;0.00;;;;;14.03;100.00;99656.91;4998582;28;45663;-81
2023/12/13 09:46:20;;;;;;;;;0.00;0.00;;;;;14.19;100.00;99658.59;5023677;28;45541;-81
2023/12/13 09:48:46;;;;;;;;;0.00;0.00;;;;;14.30;100.00;99657.00;5043673;28;45497;-81
2023/12/13 09:51:12;;;;;;;;;0.00;0.00;;;;;14.62;100.00;99658.59;5023986;28;45367;-81
2023/12/13 09:53:39;;;;;;;;;0.00;0.00;;;;;14.91;100.00;99659.34;5039221;28;45621;-80
2023/12/13 09:56:07;;;;;;;;;0.00;0.00;;;;;15.00;100.00;99665.78;5028026;28;45535;-80
2023/12/13 09:58:32;;;;;;;;;0.00;0.00;;;;;15.10;100.00;99669.50;5035453;28;46987;-80
2023/12/13 10:00:57;;;;;;;;;0.00;0.00;;;;;15.18;100.00;99669.84;5032942;28;74047;-81
2023/12/13 10:03:23;;;;;;;;;0.00;0.00;;;;;15.47;100.00;99670.56;5017548;28;45507;-80
2023/12/13 10:05:48;;;;;;;;;0.00;0.00;;;;;15.52;100.00;99667.59;5016023;28;55902;-80
2023/12/13 10:08:15;;;;;;;;;0.00;0.00;;;;;15.67;100.00;99666.59;5033806;28;67393;-80
2023/12/13 10:10:42;;;;;;;;;0.00;0.00;;;;;15.61;100.00;99679.28;5034044;28;71654;-80
2023/12/13 10:13:09;;;;;;;;;0.00;0.00;;;;;15.34;100.00;99684.56;5046236;28;45325;-80
2023/12/13 10:15:35;;;;;;;;;0.00;0.00;;;;;15.14;100.00;99691.94;5055955;28;45471;-80
2023/12/13 10:18:04;;;;;;;;;1.00;1.00;;;;;14.99;100.00;99691.16;5055215;28;45549;-80
2023/12/13 10:20:32;;;;;;;;;0.00;0.00;;;;;14.82;100.00;99697.47;5021621;28;45395;-80
2023/12/13 10:22:57;;;;;;;;;0.00;0.00;;;;;14.71;100.00;99710.41;5035729;28;45322;-80
2023/12/13 10:25:23;;;;;;;;;0.00;0.00;;;;;14.60;100.00;99715.44;5035840;28;45535;-79
2023/12/13 10:27:53;;;;;;;;;0.00;0.00;;;;;14.52;100.00;99710.66;5017158;28;46853;-81
2023/12/13 10:30:19;;;;;;;;;0.00;0.00;;;;;14.39;100.00;99714.97;5015357;28;45432;-80
2023/12/13 10:32:44;;;;;;;;;0.00;0.00;;;;;14.36;100.00;99720.38;5014260;28;45415;-81
2023/12/13 10:35:09;;;;;;;;;0.00;0.00;;;;;14.41;100.00;99715.72;5033569;28;67620;-79
2023/12/13 10:37:36;;;;;;;;;0.00;0.00;;;;;14.45;100.00;99711.97;5034098;28;71201;-80
2023/12/13 10:40:03;;;;;;;;;0.00;0.00;;;;;14.40;100.00;99716.66;5035286;28;45438;-80
2023/12/13 10:42:29;;;;;;;;;0.00;0.00;;;;;14.38;100.00;99714.13;5034081;28;45550;-81
2023/12/13 10:44:54;;;;;;;;;0.00;0.00;;;;;14.34;100.00;99720.50;5016851;28;45386;-79
2023/12/13 10:47:25;;;;;;;;;0.00;0.00;;;;;14.41;100.00;99720.94;5033662;28;55611;-79
2023/12/13 10:49:52;;;;;;;;;0.00;0.00;;;;;14.49;100.00;99727.41;5016262;28;45478;-81
2023/12/13 10:52:19;;;;;;;;;0.00;0.00;;;;;14.25;100.00;99721.03;5035425;28;45419;-82
2023/12/13 10:54:46;;;;;;;;;0.00;0.00;;;;;14.40;100.00;99724.50;5017588;28;45422;-81
2023/12/13 10:57:12;;;;;;;;;0.00;0.00;;;;;14.34;100.00;99725.72;5034457;28;45545;-81
2023/12/13 10:59:41;;;;;;;;;0.00;0.00;;;;;14.41;100.00;99720.94;5034691;28;45389;-80
2023/12/13 11:02:08;;;;;;;;;0.00;0.00;;;;;14.50;100.00;99725.63;5034826;28;45290;-81
2023/12/13 11:04:35;;;;;;;;;0.00;0.00;;;;;14.58;100.00;99720.78;5034087;28;45306;-82
2023/12/13 11:07:06;;;;;;;;;0.00;0.00;;;;;14.76;100.00;99731.06;5017041;28;46683;-80
2023/12/13 11:09:31;;;;;;;;;0.00;0.00;;;;;15.10;100.00;99721.94;5015971;28;45659;-80
2023/12/13 11:11:59;;;;;;;;;0.00;0.00;;;;;15.31;100.00;99719.69;5034264;28;45341;-80
2023/12/13 11:14:28;;;;;;;;;0.00;0.00;;;;;15.48;100.00;99724.66;5035038;28;45393;-80
2023/12/13 11:16:57;;;;;;;;;5.25;4.50;;;;;15.60;100.00;99723.03;5035013;28;46419;-79